Time;durP1;ratioP1;P1;durP2;ratioP2;P2;SDS_P1;SDS_P2;PMS_P1;PMS_P2;Temp;Humidity;BMP_temperature;BMP_pressure;BME280_temperature;BME280_humidity;BME280_pressure;Samples;Min_cycle;Max_cycle;Signal;HPM_P1;HPM_P2
2021/05/20 00:01:36;;;;;;;2.60;2.13;;;12.00;99.90;;;;;;4967402;28;20238;-75
2021/05/20 00:04:02;;;;;;;2.35;2.05;;;12.10;99.90;;;;;;4992414;28;20171;-75
2021/05/20 00:06:28;;;;;;;2.13;1.93;;;12.10;99.90;;;;;;4974893;28;20167;-75
2021/05/20 00:08:54;;;;;;;3.00;2.70;;;12.10;99.90;;;;;;4992571;28;20590;-75
2021/05/20 00:11:19;;;;;;;2.67;2.17;;;12.10;99.90;;;;;;4992401;28;20179;-76
2021/05/20 00:13:45;;;;;;;4.90;2.80;;;12.10;99.90;;;;;;4975278;28;20966;-76
2021/05/20 00:16:11;;;;;;;3.37;2.80;;;12.10;99.90;;;;;;4992543;28;20193;-76
2021/05/20 00:18:36;;;;;;;4.93;4.07;;;12.10;99.90;;;;;;4992119;28;20693;-75
2021/05/20 00:21:02;;;;;;;2.20;2.00;;;12.10;99.90;;;;;;4992629;28;20734;-76
2021/05/20 00:23:28;;;;;;;4.87;2.53;;;12.10;99.90;;;;;;4975230;28;20182;-76
2021/05/20 00:25:54;;;;;;;2.90;2.70;;;12.10;99.90;;;;;;4975153;28;20605;-75
2021/05/20 00:28:20;;;;;;;2.83;2.53;;;12.10;99.90;;;;;;4974613;28;20199;-76
2021/05/20 00:30:45;;;;;;;3.63;3.00;;;12.10;99.90;;;;;;4992239;28;20622;-76
2021/05/20 00:33:11;;;;;;;4.63;3.20;;;12.10;99.90;;;;;;4992373;28;20171;-75
2021/05/20 00:35:38;;;;;;;5.53;3.60;;;12.10;99.90;;;;;;4992379;28;20163;-75
2021/05/20 00:38:10;;;;;;;3.63;3.33;;;12.00;99.90;;;;;;4991633;28;20302;-76
2021/05/20 00:40:37;;;;;;;4.50;4.10;;;12.00;99.90;;;;;;4992319;28;20168;-75
2021/05/20 00:43:03;;;;;;;4.25;3.95;;;12.00;99.90;;;;;;4992302;28;20537;-75
2021/05/20 00:45:28;;;;;;;4.67;3.20;;;12.00;99.90;;;;;;4992232;28;20262;-75
2021/05/20 00:47:54;;;;;;;4.10;3.73;;;12.00;99.90;;;;;;4974388;28;20175;-75
2021/05/20 00:50:20;;;;;;;4.40;4.00;;;12.00;99.90;;;;;;4992188;28;20199;-76
2021/05/20 00:52:46;;;;;;;4.00;3.70;;;12.00;99.90;;;;;;4974920;28;20233;-76
2021/05/20 00:55:13;;;;;;;6.77;4.03;;;12.00;99.90;;;;;;4992298;28;20572;-75
2021/05/20 00:57:39;;;;;;;3.58;3.22;;;12.00;99.90;;;;;;4991644;28;20171;-76
2021/05/20 01:00:13;;;;;;;4.10;3.65;;;12.00;99.90;;;;;;4992122;28;20202;-76
2021/05/20 01:02:40;;;;;;;4.20;3.80;;;12.00;99.90;;;;;;4992078;28;20194;-76
2021/05/20 01:05:09;;;;;;;5.63;4.78;;;12.00;99.90;;;;;;4992065;28;20171;-76
2021/05/20 01:07:35;;;;;;;4.75;4.38;;;12.00;99.90;;;;;;4974416;28;20563;-76
2021/05/20 01:10:01;;;;;;;5.40;4.90;;;12.00;99.90;;;;;;4991946;28;20245;-76
2021/05/20 01:12:27;;;;;;;5.78;5.32;;;12.00;99.90;;;;;;4974603;28;20174;-76
2021/05/20 01:14:53;;;;;;;5.20;4.80;;;12.00;99.90;;;;;;4992052;28;20167;-76
2021/05/20 01:17:18;;;;;;;5.60;5.07;;;12.00;99.90;;;;;;4958236;28;20218;-76
2021/05/20 01:19:46;;;;;;;6.27;5.67;;;12.10;99.90;;;;;;4991759;28;20745;-76
2021/05/20 01:22:13;;;;;;;7.00;6.40;;;12.10;99.90;;;;;;4958668;28;20179;-76
2021/05/20 01:24:40;;;;;;;6.93;6.25;;;12.10;99.90;;;;;;4991934;28;20179;-76
2021/05/20 01:27:08;;;;;;;6.03;5.53;;;12.20;99.90;;;;;;4991524;28;20190;-75
2021/05/20 01:29:34;;;;;;;7.07;6.28;;;12.20;99.90;;;;;;4975037;28;20562;-75
2021/05/20 01:32:01;;;;;;;6.50;5.90;;;12.30;99.90;;;;;;4995575;28;20623;-76
2021/05/20 01:34:27;;;;;;;6.50;5.90;;;12.40;99.90;;;;;;4978166;28;20163;-76
2021/05/20 01:36:53;;;;;;;6.33;5.67;;;12.40;99.90;;;;;;4995309;28;20163;-76
2021/05/20 01:39:18;;;;;;;5.90;5.43;;;12.50;99.90;;;;;;4995392;28;20301;-76
2021/05/20 01:41:44;;;;;;;6.90;6.20;;;12.50;99.90;;;;;;4995551;28;20171;-76
2021/05/20 01:44:10;;;;;;;6.67;5.97;;;12.60;99.90;;;;;;4995434;28;20175;-76
2021/05/20 01:46:36;;;;;;;7.07;5.90;;;12.60;99.90;;;;;;4995086;28;20183;-76
2021/05/20 01:49:01;;;;;;;7.40;6.70;;;12.60;99.90;;;;;;4995379;28;20206;-76
2021/05/20 01:51:27;;;;;;;7.33;6.70;;;12.70;99.90;;;;;;4977864;28;20698;-76
2021/05/20 01:53:56;;;;;;;6.93;6.33;;;12.70;99.90;;;;;;5003150;28;20949;-75
2021/05/20 01:56:27;;;;;;;6.78;6.18;;;12.70;99.90;;;;;;4961408;28;20182;-76
2021/05/20 01:58:53;;;;;;;6.30;5.80;;;12.70;99.90;;;;;;4977851;28;20229;-75
2021/05/20 02:01:19;;;;;;;7.20;6.50;;;12.80;99.90;;;;;;4995198;28;20171;-75
2021/05/20 02:03:45;;;;;;;6.73;6.13;;;12.80;99.90;;;;;;4995187;28;20171;-76
2021/05/20 02:06:11;;;;;;;6.95;6.35;;;12.80;99.90;;;;;;4995023;28;20562;-76
2021/05/20 02:08:38;;;;;;;6.87;6.37;;;12.80;99.90;;;;;;4994629;28;20197;-76
2021/05/20 02:11:06;;;;;;;6.95;6.28;;;12.80;99.90;;;;;;4994884;28;20222;-76
2021/05/20 02:13:32;;;;;;;6.85;6.15;;;12.80;99.90;;;;;;4977471;28;20168;-76
2021/05/20 02:15:58;;;;;;;6.53;5.78;;;12.80;99.90;;;;;;4977457;28;20282;-76
2021/05/20 02:18:24;;;;;;;6.17;5.67;;;12.80;99.90;;;;;;4976994;28;20253;-76
2021/05/20 02:20:50;;;;;;;7.60;5.90;;;12.80;99.90;;;;;;4977412;28;20569;-76
2021/05/20 02:23:17;;;;;;;5.47;4.97;;;12.80;99.90;;;;;;4994788;28;20693;-76
2021/05/20 02:25:43;;;;;;;6.22;5.50;;;12.80;99.90;;;;;;4977167;28;20624;-76
2021/05/20 02:28:09;;;;;;;6.03;5.53;;;12.80;99.90;;;;;;4994075;28;20187;-75
2021/05/20 02:30:35;;;;;;;6.40;5.80;;;12.80;99.90;;;;;;4994307;28;20245;-75
2021/05/20 02:33:02;;;;;;;6.28;5.70;;;12.70;99.90;;;;;;4994599;28;20536;-75
2021/05/20 02:35:27;;;;;;;6.97;6.15;;;12.70;99.90;;;;;;4994472;28;20504;-75
2021/05/20 02:37:53;;;;;;;5.97;5.30;;;12.70;99.90;;;;;;4993794;28;20214;-75
2021/05/20 02:40:20;;;;;;;7.10;6.40;;;12.70;99.90;;;;;;4990751;23;20230;-79
2021/05/20 02:42:46;;;;;;;6.60;5.90;;;12.70;99.90;;;;;;4985136;28;20593;-79
2021/05/20 02:45:15;;;;;;;7.13;6.43;;;12.70;99.90;;;;;;4987572;28;20562;-79
2021/05/20 02:47:42;;;;;;;7.05;6.45;;;12.70;99.90;;;;;;4981199;28;20178;-79
2021/05/20 02:50:08;;;;;;;7.50;6.80;;;12.70;99.90;;;;;;4983048;28;20203;-79
2021/05/20 02:52:34;;;;;;;7.80;7.10;;;12.80;99.90;;;;;;4994165;28;20225;-79
2021/05/20 02:55:03;;;;;;;7.40;6.80;;;12.80;99.90;;;;;;4987434;28;20628;-79
2021/05/20 02:57:30;;;;;;;7.10;6.50;;;12.80;99.90;;;;;;4983152;28;20827;-79
2021/05/20 02:59:56;;;;;;;7.88;7.10;;;12.80;99.90;;;;;;4988921;28;20241;-79
2021/05/20 03:02:22;;;;;;;8.50;7.70;;;12.80;99.90;;;;;;4993873;28;20178;-80
2021/05/20 03:04:49;;;;;;;8.40;7.60;;;12.80;99.90;;;;;;4978189;28;20583;-80
2021/05/20 03:07:16;;;;;;;8.20;7.50;;;12.80;99.90;;;;;;4976427;28;20566;-80
2021/05/20 03:09:42;;;;;;;7.50;6.78;;;12.90;99.90;;;;;;4993817;28;20198;-79
2021/05/20 03:12:09;;;;;;;9.73;8.57;;;12.90;99.90;;;;;;4993897;28;20179;-80
2021/05/20 03:14:35;;;;;;;8.90;8.10;;;12.90;99.90;;;;;;4976445;28;20584;-80
2021/05/20 03:17:02;;;;;;;8.53;7.70;;;12.90;99.90;;;;;;4976193;28;20237;-80
2021/05/20 03:19:28;;;;;;;9.68;7.25;;;12.90;99.90;;;;;;4976352;28;20594;-80
2021/05/20 03:21:54;;;;;;;7.88;7.18;;;12.90;99.90;;;;;;4993966;28;20195;-80
2021/05/20 03:24:20;;;;;;;7.97;7.23;;;12.90;99.90;;;;;;4995801;28;20194;-79
2021/05/20 03:26:46;;;;;;;8.73;7.93;;;12.90;99.90;;;;;;4994884;28;20245;-79
2021/05/20 03:29:11;;;;;;;10.67;8.47;;;12.90;99.90;;;;;;4993388;28;20182;-79
2021/05/20 03:31:37;;;;;;;9.93;9.10;;;12.90;99.90;;;;;;4994154;28;20179;-79
2021/05/20 03:34:03;;;;;;;10.10;9.20;;;12.90;99.90;;;;;;4977255;28;20504;-79
2021/05/20 03:36:29;;;;;;;9.87;8.87;;;12.90;99.90;;;;;;4992999;28;20505;-79
2021/05/20 03:38:54;;;;;;;9.20;8.40;;;12.90;99.90;;;;;;4959922;28;20574;-80
2021/05/20 03:41:20;;;;;;;9.90;8.87;;;12.90;99.90;;;;;;4977124;28;20218;-79
2021/05/20 03:43:46;;;;;;;9.50;8.57;;;12.90;99.90;;;;;;4993189;28;20170;-79
2021/05/20 03:46:11;;;;;;;10.43;9.20;;;12.90;99.90;;;;;;4959789;28;20175;-80
2021/05/20 03:48:37;;;;;;;12.60;10.13;;;12.90;99.90;;;;;;4992977;28;20213;-79
2021/05/20 03:51:03;;;;;;;12.60;10.37;;;12.90;99.90;;;;;;4976703;28;20578;-79
2021/05/20 03:53:31;;;;;;;11.47;10.57;;;12.90;99.90;;;;;;4992970;28;20179;-79
2021/05/20 03:55:57;;;;;;;12.18;11.05;;;12.90;99.90;;;;;;4975949;28;20972;-79
2021/05/20 03:58:23;;;;;;;10.68;9.73;;;12.90;99.90;;;;;;4975336;28;20175;-79
2021/05/20 04:00:49;;;;;;;13.13;11.87;;;13.00;99.90;;;;;;4992987;28;20198;-79
2021/05/20 04:03:27;;;;;;;14.27;12.87;;;13.00;99.90;;;;;;4992785;28;20577;-79
2021/05/20 04:05:58;;;;;;;15.50;14.00;;;13.00;99.90;;;;;;4993047;28;20202;-79
2021/05/20 04:08:24;;;;;;;16.25;14.23;;;13.10;99.90;;;;;;4975221;28;20189;-80
2021/05/20 04:10:50;;;;;;;16.02;14.43;;;13.10;99.90;;;;;;4975239;28;20210;-79
2021/05/20 04:13:31;;;;;;;15.45;14.00;;;13.10;99.90;;;;;;4975638;28;20258;-79
2021/05/20 04:15:58;;;;;;;16.55;14.85;;;13.20;99.90;;;;;;4975497;28;20630;-80
2021/05/20 04:18:24;;;;;;;16.60;14.90;;;13.20;99.90;;;;;;4994042;28;20179;-80
2021/05/20 04:20:51;;;;;;;19.10;16.80;;;13.30;99.90;;;;;;4974965;28;20278;-79
2021/05/20 04:23:17;;;;;;;17.05;15.25;;;13.30;99.90;;;;;;4975542;28;20267;-79
2021/05/20 04:25:43;;;;;;;17.35;15.70;;;13.40;99.90;;;;;;4993203;28;20171;-79
2021/05/20 04:28:10;;;;;;;17.50;15.90;;;13.40;99.90;;;;;;4975347;28;20178;-78
2021/05/20 04:30:36;;;;;;;18.67;16.88;;;13.40;99.90;;;;;;4975378;28;20213;-79
2021/05/20 04:33:05;;;;;;;18.05;16.35;;;13.50;99.90;;;;;;4975665;28;20174;-79
2021/05/20 04:35:31;;;;;;;17.88;15.98;;;13.50;99.90;;;;;;4975689;28;20218;-79
2021/05/20 04:37:57;;;;;;;20.77;17.95;;;13.50;99.90;;;;;;4974724;28;20182;-79
2021/05/20 04:40:23;;;;;;;17.73;16.00;;;13.50;99.90;;;;;;4992491;28;20678;-79
2021/05/20 04:42:49;;;;;;;20.27;17.50;;;13.50;99.90;;;;;;4992576;28;20570;-79
2021/05/20 04:45:15;;;;;;;19.17;17.47;;;13.40;99.90;;;;;;4992663;28;20175;-79
2021/05/20 04:47:41;;;;;;;19.58;17.63;;;13.40;99.90;;;;;;4991982;28;20570;-79
2021/05/20 04:50:07;;;;;;;22.53;17.57;;;13.40;99.90;;;;;;4977789;28;20683;-80
2021/05/20 04:52:33;;;;;;;20.30;18.40;;;13.40;99.90;;;;;;4972619;28;20176;-80
2021/05/20 04:54:59;;;;;;;19.27;17.37;;;13.40;99.90;;;;;;4939483;28;20176;-79
2021/05/20 04:57:24;;;;;;;21.23;19.33;;;13.40;99.90;;;;;;4972590;28;20658;-79
2021/05/20 04:59:52;;;;;;;19.13;17.33;;;13.40;99.90;;;;;;4972719;28;20694;-79
2021/05/20 05:02:18;;;;;;;21.27;19.17;;;13.40;99.90;;;;;;4973054;28;20540;-80
2021/05/20 05:04:44;;;;;;;21.10;18.50;;;13.50;99.90;;;;;;4956513;28;20177;-79
2021/05/20 05:07:09;;;;;;;22.07;19.97;;;13.50;99.90;;;;;;4977389;28;20198;-80
2021/05/20 05:09:35;;;;;;;20.60;18.50;;;13.50;99.90;;;;;;4977145;28;20211;-79
2021/05/20 05:12:01;;;;;;;19.90;17.90;;;13.50;99.90;;;;;;4977021;28;20751;-80
2021/05/20 05:14:27;;;;;;;21.47;19.40;;;13.60;99.90;;;;;;4977508;28;20168;-80
2021/05/20 05:16:54;;;;;;;23.93;21.43;;;13.60;99.90;;;;;;4977601;28;20181;-81
2021/05/20 05:19:20;;;;;;;25.10;20.45;;;13.60;99.90;;;;;;4982052;28;20175;-80
2021/05/20 05:21:46;;;;;;;22.45;20.20;;;13.60;99.90;;;;;;4981890;28;20207;-80
2021/05/20 05:24:12;;;;;;;23.38;20.88;;;13.60;99.90;;;;;;4965020;28;20164;-79
2021/05/20 05:26:37;;;;;;;23.50;20.53;;;13.60;99.90;;;;;;4964359;28;20178;-79
2021/05/20 05:29:03;;;;;;;24.90;22.30;;;13.60;99.90;;;;;;4981589;28;20231;-80
2021/05/20 05:31:32;;;;;;;24.10;21.43;;;13.70;99.90;;;;;;4982107;28;20195;-78
2021/05/20 05:33:57;;;;;;;22.88;20.38;;;13.70;99.90;;;;;;4982112;28;20652;-79
2021/05/20 05:36:24;;;;;;;22.60;20.20;;;13.70;99.90;;;;;;4978092;28;20174;-79
2021/05/20 05:38:49;;;;;;;24.02;21.55;;;13.80;99.90;;;;;;4985187;28;20670;-79
2021/05/20 05:41:15;;;;;;;23.67;21.17;;;13.80;99.90;;;;;;4981529;28;20755;-80
2021/05/20 05:43:41;;;;;;;25.47;22.43;;;13.90;99.90;;;;;;4960283;28;20207;-80
2021/05/20 05:46:07;;;;;;;24.80;21.40;;;13.90;99.90;;;;;;4977687;28;20180;-80
2021/05/20 05:48:33;;;;;;;24.00;21.33;;;13.90;99.90;;;;;;4977331;28;20206;-79
2021/05/20 05:50:59;;;;;;;21.77;19.47;;;14.00;99.90;;;;;;4976654;28;20754;-80
2021/05/20 05:53:24;;;;;;;27.57;24.43;;;14.00;99.90;;;;;;4976544;28;20532;-79
2021/05/20 05:55:51;;;;;;;26.23;23.43;;;14.00;99.90;;;;;;4976250;28;20254;-79
2021/05/20 05:58:20;;;;;;;25.27;21.60;;;14.10;99.90;;;;;;4976051;28;20156;-79
2021/05/20 06:00:46;;;;;;;24.75;22.15;;;14.10;99.90;;;;;;4975200;28;20611;-80
2021/05/20 06:03:16;;;;;;;22.98;20.50;;;14.20;99.90;;;;;;4976074;28;20171;-81
2021/05/20 06:05:42;;;;;;;22.90;20.38;;;14.30;99.90;;;;;;4975613;28;20201;-83
2021/05/20 06:08:07;;;;;;;24.60;21.97;;;14.40;99.90;;;;;;4958071;28;20219;-82
2021/05/20 06:10:34;;;;;;;22.67;20.30;;;14.40;99.90;;;;;;4944767;28;20646;-83
2021/05/20 06:13:00;;;;;;;29.38;24.65;;;14.50;99.90;;;;;;4975694;28;20238;-83
2021/05/20 06:15:26;;;;;;;26.80;24.00;;;14.50;99.90;;;;;;4976113;28;20183;-81
2021/05/20 06:17:52;;;;;;;28.05;23.75;;;14.60;99.90;;;;;;4976194;28;20226;-82
2021/05/20 06:20:18;;;;;;;24.93;22.10;;;14.60;99.90;;;;;;4976131;28;20184;-82
2021/05/20 06:22:44;;;;;;;24.33;21.73;;;14.70;99.90;;;;;;4976667;28;20292;-83
2021/05/20 06:25:10;;;;;;;27.83;23.07;;;14.80;99.90;;;;;;4959692;28;20182;-83
2021/05/20 06:27:36;;;;;;;25.15;22.33;;;14.80;99.90;;;;;;4978707;28;20226;-82
2021/05/20 06:30:02;;;;;;;25.40;22.47;;;14.90;99.90;;;;;;4965961;28;20586;-82
2021/05/20 06:32:28;;;;;;;25.08;22.30;;;15.00;99.90;;;;;;4986064;28;20203;-82
2021/05/20 06:34:54;;;;;;;23.50;21.00;;;15.10;99.90;;;;;;4986531;28;20168;-82
2021/05/20 06:37:20;;;;;;;23.40;21.03;;;15.20;99.90;;;;;;4969224;28;20204;-82
2021/05/20 06:39:46;;;;;;;24.00;21.50;;;15.30;99.90;;;;;;4987199;28;20936;-81
2021/05/20 06:42:14;;;;;;;27.63;23.33;;;15.40;99.90;;;;;;4990128;28;20187;-81
2021/05/20 06:44:40;;;;;;;23.53;20.87;;;15.50;99.90;;;;;;4977904;28;20571;-82
2021/05/20 06:47:07;;;;;;;27.70;23.20;;;15.60;99.90;;;;;;4988156;28;20666;-82
2021/05/20 06:49:33;;;;;;;24.83;22.23;;;15.80;99.90;;;;;;4985909;28;20641;-82
2021/05/20 06:51:59;;;;;;;21.03;18.93;;;16.00;99.90;;;;;;4967676;28;20607;-81
2021/05/20 06:54:25;;;;;;;20.50;18.43;;;16.10;99.90;;;;;;4980954;28;20572;-83
2021/05/20 06:56:55;;;;;;;22.30;20.00;;;16.30;99.90;;;;;;4945963;28;20579;-82
2021/05/20 07:02:05;;;;;;;17.40;15.70;;;16.50;99.90;;;;;;4979074;28;20559;-80
2021/05/20 07:04:31;;;;;;;17.57;15.93;;;16.70;99.90;;;;;;4943743;28;20578;-81
2021/05/20 07:07:01;;;;;;;17.10;15.40;;;16.90;99.90;;;;;;4976202;28;20180;-80
2021/05/20 07:09:31;;;;;;;17.43;15.73;;;17.20;99.90;;;;;;4957934;28;21153;-80
2021/05/20 07:11:57;;;;;;;16.80;15.00;;;17.40;99.90;;;;;;4958674;28;20598;-81
2021/05/20 07:14:23;;;;;;;16.50;14.90;;;17.60;99.90;;;;;;4975283;28;20567;-80
2021/05/20 07:16:50;;;;;;;16.83;15.03;;;17.70;99.90;;;;;;4959306;28;20563;-79
2021/05/20 07:19:16;;;;;;;14.93;13.43;;;17.90;99.90;;;;;;4975794;28;20654;-80
2021/05/20 07:21:42;;;;;;;12.90;11.60;;;17.90;99.90;;;;;;4958492;28;21026;-80
2021/05/20 07:24:08;;;;;;;15.00;13.50;;;17.90;99.90;;;;;;4976688;28;20567;-80
2021/05/20 07:26:34;;;;;;;15.30;13.70;;;17.80;99.90;;;;;;4941828;28;20551;-80
2021/05/20 07:29:01;;;;;;;14.83;13.40;;;17.80;99.90;;;;;;4957681;28;20571;-81
2021/05/20 07:31:28;;;;;;;14.73;13.40;;;17.80;99.90;;;;;;4974291;28;20195;-80
2021/05/20 07:33:53;;;;;;;13.83;12.53;;;17.80;99.90;;;;;;4957128;28;20583;-82
2021/05/20 07:36:20;;;;;;;14.37;12.90;;;17.70;99.90;;;;;;4974368;28;20571;-81
2021/05/20 07:38:46;;;;;;;15.10;13.70;;;17.70;99.90;;;;;;4957030;28;20179;-80
2021/05/20 07:41:12;;;;;;;14.17;12.77;;;17.60;99.90;;;;;;4956518;28;20657;-81
2021/05/20 07:43:38;;;;;;;13.20;11.90;;;17.50;99.90;;;;;;4974858;28;20310;-81
2021/05/20 07:46:03;;;;;;;13.00;11.80;;;17.50;99.90;;;;;;4927030;28;20282;-81
2021/05/20 07:48:33;;;;;;;12.77;11.57;;;17.50;99.90;;;;;;4958460;28;20182;-81
2021/05/20 07:51:00;;;;;;;12.67;11.37;;;17.40;99.90;;;;;;4958284;28;20203;-82
2021/05/20 07:53:25;;;;;;;12.60;11.40;;;17.50;99.90;;;;;;4958861;28;20936;-82
2021/05/20 07:55:51;;;;;;;13.13;11.83;;;17.50;99.90;;;;;;4975414;28;20658;-81
2021/05/20 07:58:17;;;;;;;11.60;10.20;;;17.60;99.90;;;;;;4956522;28;20182;-79
2021/05/20 08:00:43;;;;;;;12.37;11.20;;;17.60;99.90;;;;;;4976509;28;20200;-80
2021/05/20 08:08:32;;;;;;;10.80;9.67;;;17.90;99.90;;;;;;4974546;28;20585;-80
2021/05/20 08:11:06;;;;;;;10.13;9.23;;;18.10;99.90;;;;;;4974473;28;21198;-79
2021/05/20 08:13:33;;;;;;;10.37;9.40;;;18.40;99.90;;;;;;4974705;28;20574;-79
2021/05/20 08:16:00;;;;;;;12.37;10.40;;;18.70;99.90;;;;;;4974703;28;20575;-79
2021/05/20 08:18:28;;;;;;;11.17;10.07;;;19.30;99.90;;;;;;4974403;28;20570;-79
2021/05/20 08:20:54;;;;;;;9.90;8.90;;;19.70;99.90;;;;;;4974345;28;20607;-78
2021/05/20 08:23:19;;;;;;;10.10;9.30;;;20.10;99.90;;;;;;4974323;28;20657;-79
2021/05/20 08:25:45;;;;;;;11.77;10.60;;;20.40;99.90;;;;;;4974359;28;20996;-79
2021/05/20 08:28:11;;;;;;;9.60;8.73;;;20.70;99.90;;;;;;4956850;28;20210;-78
2021/05/20 08:30:37;;;;;;;9.60;8.80;;;20.90;99.90;;;;;;4974256;28;21002;-78
2021/05/20 08:33:04;;;;;;;9.27;8.37;;;21.10;99.90;;;;;;4956934;28;20568;-80
2021/05/20 08:35:29;;;;;;;8.77;7.93;;;21.30;99.90;;;;;;4957015;28;20574;-80
2021/05/20 08:37:55;;;;;;;8.53;7.80;;;21.40;99.90;;;;;;4959662;28;20690;-80
2021/05/20 08:40:21;;;;;;;7.93;7.33;;;21.60;99.90;;;;;;4973538;28;20207;-79
2021/05/20 08:42:47;;;;;;;9.23;8.17;;;22.20;99.90;;;;;;4956899;28;20184;-79
2021/05/20 08:45:14;;;;;;;7.70;7.00;;;22.80;99.90;;;;;;4974195;28;20575;-79
2021/05/20 08:47:42;;;;;;;8.10;7.40;;;23.40;99.90;;;;;;4973857;28;20567;-80
2021/05/20 08:50:08;;;;;;;6.60;6.10;;;24.00;99.90;;;;;;4956498;28;21067;-79
2021/05/20 08:52:38;;;;;;;7.83;6.83;;;24.50;99.90;;;;;;4956313;28;20567;-78
2021/05/20 08:55:29;;;;;;;7.03;6.43;;;25.30;99.90;;;;;;4956498;28;20610;-79
2021/05/20 08:57:56;;;;;;;7.00;6.30;;;26.50;99.90;;;;;;4973681;28;20582;-79
2021/05/20 09:00:23;;;;;;;7.33;6.70;;;27.70;99.90;;;;;;4973219;28;21580;-78
2021/05/20 09:02:51;;;;;;;7.90;7.20;;;28.60;99.90;;;;;;4956184;28;20678;-80
2021/05/20 09:05:21;;;;;;;7.30;6.73;;;29.40;99.90;;;;;;4973779;28;20574;-79
2021/05/20 09:07:55;;;;;;;8.50;6.07;;;30.00;98.20;;;;;;4956396;28;20598;-79
2021/05/20 09:10:26;;;;;;;6.33;5.73;;;30.50;96.70;;;;;;4939747;28;20673;-80
2021/05/20 09:13:04;;;;;;;5.87;5.37;;;30.80;93.90;;;;;;4940550;28;20574;-79
2021/05/20 09:15:34;;;;;;;4.80;4.30;;;31.10;93.70;;;;;;4974524;28;20666;-79
2021/05/20 09:18:17;;;;;;;6.00;5.50;;;31.60;91.90;;;;;;4955570;28;21071;-79
2021/05/20 09:20:48;;;;;;;7.33;5.53;;;32.10;89.10;;;;;;4955756;28;20606;-80
2021/05/20 09:23:16;;;;;;;6.80;6.10;;;32.20;87.40;;;;;;4972594;28;20686;-78
2021/05/20 09:25:44;;;;;;;6.23;5.73;;;32.40;85.70;;;;;;4955678;28;20594;-79
2021/05/20 09:28:11;;;;;;;6.10;5.60;;;32.30;81.40;;;;;;4955658;28;20614;-79
2021/05/20 09:30:40;;;;;;;6.30;5.80;;;31.80;77.40;;;;;;4972661;28;20602;-78
2021/05/20 09:33:08;;;;;;;6.17;5.57;;;31.20;74.70;;;;;;4973185;28;20923;-80
2021/05/20 09:35:36;;;;;;;7.17;6.50;;;30.40;72.60;;;;;;4973110;28;20972;-78
2021/05/20 09:38:06;;;;;;;9.57;5.80;;;29.50;71.40;;;;;;4956078;28;20563;-79
2021/05/20 09:40:41;;;;;;;6.63;6.03;;;28.70;70.50;;;;;;4973734;28;20638;-80
2021/05/20 09:43:15;;;;;;;6.60;5.80;;;28.40;73.10;;;;;;4973988;28;20582;-80
2021/05/20 09:45:41;;;;;;;5.53;5.13;;;28.50;77.00;;;;;;4956976;28;20579;-80
2021/05/20 09:48:50;;;;;;;5.10;4.70;;;29.00;78.80;;;;;;4974074;28;20653;-80
2021/05/20 09:51:27;;;;;;;5.37;4.87;;;29.50;79.60;;;;;;4981307;28;20638;-79
2021/05/20 09:53:54;;;;;;;4.90;4.40;;;30.10;77.10;;;;;;4995675;28;20594;-77
2021/05/20 09:56:39;;;;;;;5.70;5.20;;;30.70;79.10;;;;;;4977261;28;20579;-80
2021/05/20 09:59:05;;;;;;;6.33;5.63;;;31.20;74.00;;;;;;4984812;28;20586;-78
2021/05/20 10:01:31;;;;;;;7.00;6.30;;;31.20;70.50;;;;;;4979935;28;20738;-79
2021/05/20 10:03:57;;;;;;;6.30;5.80;;;30.80;68.00;;;;;;4984281;28;20198;-78
2021/05/20 10:06:42;;;;;;;4.93;4.50;;;30.30;66.10;;;;;;4958404;28;20571;-78
2021/05/20 10:09:12;;;;;;;4.30;3.90;;;29.80;65.10;;;;;;4975921;28;20923;-78
2021/05/20 10:11:40;;;;;;;4.47;4.17;;;29.10;65.10;;;;;;4975533;28;20606;-79
2021/05/20 10:14:06;;;;;;;5.47;5.07;;;28.40;63.80;;;;;;4958177;28;20946;-78
2021/05/20 10:16:33;;;;;;;5.90;4.60;;;27.70;63.30;;;;;;4975074;28;20591;-78
2021/05/20 10:18:59;;;;;;;8.00;4.20;;;27.00;63.60;;;;;;4975181;28;20570;-78
2021/05/20 10:21:28;;;;;;;4.73;4.33;;;26.40;64.10;;;;;;4975093;28;20618;-78
2021/05/20 10:23:56;;;;;;;5.43;4.70;;;26.00;65.80;;;;;;4977299;28;20574;-78
2021/05/20 10:26:23;;;;;;;5.77;5.27;;;25.70;66.80;;;;;;4994299;28;20611;-78
2021/05/20 10:28:49;;;;;;;6.33;4.90;;;25.60;68.60;;;;;;4994674;28;20598;-78
2021/05/20 10:31:15;;;;;;;4.67;4.27;;;26.00;71.10;;;;;;4976837;28;20653;-78
2021/05/20 10:33:43;;;;;;;4.83;4.37;;;26.40;71.40;;;;;;4994449;28;20572;-78
2021/05/20 10:36:24;;;;;;;4.53;3.77;;;27.00;72.40;;;;;;4977017;28;20579;-78
2021/05/20 10:38:50;;;;;;;3.53;3.23;;;27.70;70.50;;;;;;4976839;28;20574;-78
2021/05/20 10:41:22;;;;;;;3.80;3.40;;;28.40;71.90;;;;;;4993319;28;20641;-78
2021/05/20 10:44:08;;;;;;;3.30;3.00;;;28.90;68.10;;;;;;4994122;28;20170;-78
2021/05/20 10:47:00;;;;;;;3.53;2.80;;;28.70;65.60;;;;;;4976060;28;21373;-78
2021/05/20 10:49:45;;;;;;;3.50;2.23;;;28.90;65.90;;;;;;4993809;28;20601;-78
2021/05/20 10:52:38;;;;;;;2.50;1.73;;;29.10;64.90;;;;;;4993807;28;20565;-80
2021/05/20 10:55:06;;;;;;;2.43;1.90;;;29.10;63.80;;;;;;4976570;28;20574;-78
2021/05/20 10:57:50;;;;;;;2.97;2.20;;;29.10;62.90;;;;;;4993643;28;20566;-78
2021/05/20 11:00:29;;;;;;;3.93;2.00;;;29.20;62.60;;;;;;4937827;29;20631;-78
2021/05/20 11:02:55;;;;;;;1.70;1.50;;;29.50;63.60;;;;;;4954169;28;20572;-79
2021/05/20 11:05:39;;;;;;;1.80;1.60;;;29.80;64.30;;;;;;4939294;29;21001;-78
2021/05/20 11:08:09;;;;;;;3.03;2.70;;;30.20;64.60;;;;;;4956007;29;20959;-78
2021/05/20 11:10:38;;;;;;;2.23;2.03;;;30.60;62.80;;;;;;4937651;29;20641;-80
2021/05/20 11:13:05;;;;;;;3.57;2.00;;;31.00;62.10;;;;;;4938194;29;20906;-81
2021/05/20 11:15:31;;;;;;;3.40;2.80;;;31.10;60.60;;;;;;4955100;29;20560;-82
2021/05/20 11:18:33;;;;;;;2.90;2.27;;;31.10;58.80;;;;;;4954503;29;20562;-82
2021/05/20 11:20:59;;;;;;;2.27;1.83;;;30.70;57.40;;;;;;4937816;29;20635;-82
2021/05/20 11:23:26;;;;;;;2.77;1.67;;;30.30;56.90;;;;;;4954961;29;20560;-82
2021/05/20 11:26:10;;;;;;;2.30;1.83;;;29.90;56.20;;;;;;4938059;29;20203;-82
2021/05/20 11:28:55;;;;;;;2.07;1.33;;;29.40;55.20;;;;;;4937073;29;20576;-80
2021/05/20 11:31:22;;;;;;;4.03;1.47;;;29.10;56.10;;;;;;4955521;28;20710;-79
2021/05/20 11:36:47;;;;;;;2.23;1.93;;;28.50;55.70;;;;;;4955723;29;21154;-80
2021/05/20 11:39:19;;;;;;;1.90;1.70;;;28.30;56.30;;;;;;4938007;28;20948;-79
2021/05/20 11:41:46;;;;;;;2.30;1.90;;;28.10;55.60;;;;;;4938913;29;20647;-80
2021/05/20 11:44:17;;;;;;;3.00;2.10;;;27.90;56.10;;;;;;4939521;29;20580;-79
2021/05/20 11:47:08;;;;;;;2.50;1.83;;;27.70;55.20;;;;;;4955579;29;20560;-80
2021/05/20 11:49:36;;;;;;;2.17;1.57;;;27.30;55.30;;;;;;4915238;29;21222;-79
2021/05/20 11:52:09;;;;;;;2.67;1.70;;;26.90;55.10;;;;;;4938567;29;20568;-79
2021/05/20 11:54:37;;;;;;;2.20;1.40;;;26.50;55.00;;;;;;4939301;29;20580;-80
2021/05/20 11:57:06;;;;;;;3.67;1.53;;;26.30;55.40;;;;;;4955333;29;21157;-78
2021/05/20 11:59:38;;;;;;;1.50;1.17;;;26.10;55.40;;;;;;4956800;28;20627;-80
2021/05/20 12:02:06;;;;;;;1.80;1.50;;;25.80;55.80;;;;;;4940683;29;20587;-80
2021/05/20 12:04:32;;;;;;;3.40;2.10;;;25.60;55.70;;;;;;4940042;29;20943;-82
2021/05/20 12:06:59;;;;;;;2.00;1.63;;;25.50;56.40;;;;;;4940601;28;20596;-80
2021/05/20 12:09:25;;;;;;;3.10;1.43;;;25.50;56.90;;;;;;4948379;28;20935;-81
2021/05/20 12:12:11;;;;;;;2.60;1.60;;;25.60;57.70;;;;;;4960446;28;20586;-78
2021/05/20 12:15:13;;;;;;;1.90;1.33;;;25.70;57.40;;;;;;4964110;23;21316;-78
2021/05/20 12:17:39;;;;;;;1.90;1.50;;;25.80;56.90;;;;;;4963201;28;20607;-78
2021/05/20 12:20:06;;;;;;;1.70;1.20;;;25.80;57.30;;;;;;4944138;28;21302;-78
2021/05/20 12:22:32;;;;;;;1.70;1.17;;;25.90;58.10;;;;;;4947357;29;21207;-77
2021/05/20 12:25:05;;;;;;;1.77;1.33;;;26.00;58.10;;;;;;4917609;29;20609;-76
2021/05/20 12:27:52;;;;;;;2.80;1.20;;;26.10;57.50;;;;;;4901015;29;21128;-77
2021/05/20 12:30:24;;;;;;;1.77;0.90;;;26.20;56.80;;;;;;4934307;29;20692;-77
2021/05/20 12:32:51;;;;;;;1.40;0.93;;;26.20;56.70;;;;;;4917362;29;20584;-76
2021/05/20 12:35:31;;;;;;;2.00;1.20;;;26.10;56.20;;;;;;4932784;29;20592;-77
2021/05/20 12:38:12;;;;;;;1.50;1.23;;;26.10;56.10;;;;;;4933930;29;20573;-77
2021/05/20 12:40:40;;;;;;;1.50;1.00;;;26.00;56.10;;;;;;4917248;29;20624;-77
2021/05/20 12:43:17;;;;;;;1.60;0.90;;;26.00;56.60;;;;;;4934093;29;20617;-77
2021/05/20 12:45:45;;;;;;;1.30;0.80;;;26.00;56.40;;;;;;4920847;29;20591;-75
2021/05/20 12:48:40;;;;;;;1.60;0.90;;;25.90;56.00;;;;;;4952540;29;20580;-76
2021/05/20 12:51:14;;;;;;;2.97;0.90;;;25.80;55.90;;;;;;4952044;28;20963;-76
2021/05/20 12:53:43;;;;;;;1.60;0.97;;;25.80;56.90;;;;;;4951759;28;20691;-76
2021/05/20 12:56:21;;;;;;;1.57;0.80;;;25.80;56.30;;;;;;4957309;29;20560;-75
2021/05/20 12:58:57;;;;;;;1.40;0.80;;;25.70;55.90;;;;;;4965709;28;20604;-75